Time;durP1;ratioP1;P1;durP2;ratioP2;P2;SDS_P1;SDS_P2;PMS_P1;PMS_P2;Temp;Humidity;BMP_temperature;BMP_pressure;BME280_temperature;BME280_humidity;BME280_pressure;Samples;Min_cycle;Max_cycle;Signal;HPM_P1;HPM_P2
2023/04/23 00:01:24;;;;;;;3.80;3.50;;;;;;;;;;5094318;28;20962;-76
2023/04/23 00:06:42;;;;;;;5.73;3.47;;;;;;;;;;5095531;28;20449;-76
2023/04/23 00:09:25;;;;;;;6.40;3.40;;;;;;;;;;5094558;28;20513;-77
2023/04/23 00:11:59;;;;;;;4.70;3.43;;;;;;;;;;5094887;28;20515;-77
2023/04/23 00:14:37;;;;;;;3.60;3.30;;;;;;;;;;5095927;28;20530;-77
2023/04/23 00:17:10;;;;;;;6.70;3.30;;;;;;;;;;5096344;28;20831;-77
2023/04/23 00:19:59;;;;;;;3.43;3.13;;;;;;;;;;5077344;28;20468;-76
2023/04/23 00:22:28;;;;;;;2.80;2.60;;;;;;;;;;5072489;28;20441;-76
2023/04/23 00:25:00;;;;;;;3.37;2.70;;;;;;;;;;5076680;28;20530;-77
2023/04/23 00:27:28;;;;;;;3.17;2.77;;;;;;;;;;5077365;28;20476;-78
2023/04/23 00:29:59;;;;;;;3.60;3.20;;;;;;;;;;5077394;28;20779;-76
2023/04/23 00:32:32;;;;;;;3.20;2.80;;;;;;;;;;5077411;28;20476;-76
2023/04/23 00:35:04;;;;;;;3.53;2.93;;;;;;;;;;5078064;28;20452;-76
2023/04/23 00:37:34;;;;;;;4.17;2.50;;;;;;;;;;5078669;28;21073;-76
2023/04/23 00:40:04;;;;;;;3.27;2.70;;;;;;;;;;5076167;28;20499;-76
2023/04/23 00:42:32;;;;;;;3.40;2.97;;;;;;;;;;5086381;28;20542;-77
2023/04/23 00:45:04;;;;;;;2.77;2.50;;;;;;;;;;5096617;28;20947;-78
2023/04/23 00:47:34;;;;;;;4.23;3.00;;;;;;;;;;5096484;28;21062;-77
2023/04/23 00:50:05;;;;;;;2.60;2.40;;;;;;;;;;5098919;28;20463;-76
2023/04/23 00:52:34;;;;;;;5.23;3.43;;;;;;;;;;5094614;28;20488;-76
2023/04/23 00:55:02;;;;;;;2.73;2.53;;;;;;;;;;5092637;28;20475;-76
2023/04/23 00:57:33;;;;;;;3.53;3.23;;;;;;;;;;5092296;28;20471;-76
2023/04/23 01:00:12;;;;;;;2.63;2.37;;;;;;;;;;5092906;28;20562;-77
2023/04/23 01:02:51;;;;;;;3.03;2.80;;;;;;;;;;5092005;28;20428;-76
2023/04/23 01:05:27;;;;;;;3.53;3.23;;;;;;;;;;5092654;28;20466;-76
2023/04/23 01:07:58;;;;;;;3.20;3.00;;;;;;;;;;5091648;28;20439;-76
2023/04/23 01:10:25;;;;;;;4.07;2.90;;;;;;;;;;5092289;28;20924;-77
2023/04/23 01:12:54;;;;;;;3.40;3.10;;;;;;;;;;5093178;28;20456;-76
2023/04/23 01:15:30;;;;;;;5.07;2.90;;;;;;;;;;5095632;28;20509;-76
2023/04/23 01:18:00;;;;;;;2.70;2.50;;;;;;;;;;5095509;28;20574;-75
2023/04/23 01:20:42;;;;;;;3.50;3.20;;;;;;;;;;5095580;28;20480;-76
2023/04/23 01:23:11;;;;;;;3.30;3.10;;;;;;;;;;5095156;28;20456;-76
2023/04/23 01:25:40;;;;;;;3.23;3.00;;;;;;;;;;5094442;28;21022;-76
2023/04/23 01:28:10;;;;;;;3.53;3.13;;;;;;;;;;5091470;28;20475;-77
2023/04/23 01:30:43;;;;;;;3.60;3.40;;;;;;;;;;5092162;28;20883;-77
2023/04/23 01:33:18;;;;;;;5.10;2.80;;;;;;;;;;5091879;28;20452;-76
2023/04/23 01:35:51;;;;;;;3.50;3.20;;;;;;;;;;5092251;28;20880;-76
2023/04/23 01:38:34;;;;;;;5.20;2.57;;;;;;;;;;5092211;28;20990;-76
2023/04/23 01:41:05;;;;;;;3.77;3.40;;;;;;;;;;5092386;28;20532;-76
2023/04/23 01:43:42;;;;;;;3.43;3.20;;;;;;;;;;5092846;28;20528;-77
2023/04/23 01:46:10;;;;;;;3.50;3.20;;;;;;;;;;5092832;28;20786;-77
2023/04/23 01:48:43;;;;;;;3.23;3.00;;;;;;;;;;5091320;28;20459;-76
2023/04/23 01:51:12;;;;;;;3.77;3.43;;;;;;;;;;5091093;28;20946;-77
2023/04/23 01:53:45;;;;;;;3.40;3.10;;;;;;;;;;5091103;28;20998;-76
2023/04/23 01:56:15;;;;;;;3.10;2.90;;;;;;;;;;5091690;28;20451;-76
2023/04/23 01:58:43;;;;;;;3.00;2.80;;;;;;;;;;5088484;28;20475;-77
2023/04/23 02:01:17;;;;;;;4.10;3.30;;;;;;;;;;5089854;28;20448;-76
2023/04/23 02:03:48;;;;;;;2.50;2.40;;;;;;;;;;5076657;28;20941;-76
2023/04/23 02:06:31;;;;;;;2.63;2.50;;;;;;;;;;5072788;28;21013;-76
2023/04/23 02:09:02;;;;;;;3.00;2.77;;;;;;;;;;5071979;28;20936;-76
2023/04/23 02:11:31;;;;;;;2.70;2.50;;;;;;;;;;5071593;28;20459;-77
2023/04/23 02:14:03;;;;;;;3.37;2.40;;;;;;;;;;5071217;28;20447;-76
2023/04/23 02:16:31;;;;;;;3.73;2.70;;;;;;;;;;5072141;28;20456;-76
2023/04/23 02:18:59;;;;;;;3.90;2.60;;;;;;;;;;5073286;28;20447;-76
2023/04/23 02:21:28;;;;;;;3.50;2.80;;;;;;;;;;5076766;28;20428;-76
2023/04/23 02:23:59;;;;;;;2.40;2.30;;;;;;;;;;5078990;28;20456;-76
2023/04/23 02:26:28;;;;;;;2.90;2.57;;;;;;;;;;5078929;28;21001;-75
2023/04/23 02:29:06;;;;;;;3.37;2.83;;;;;;;;;;5079763;28;20547;-76
2023/04/23 02:31:36;;;;;;;2.63;2.43;;;;;;;;;;5077740;28;20462;-77
2023/04/23 02:34:13;;;;;;;2.80;2.60;;;;;;;;;;5076486;28;20472;-78
2023/04/23 02:36:47;;;;;;;3.03;2.70;;;;;;;;;;5076732;28;20924;-76
2023/04/23 02:39:18;;;;;;;2.93;2.73;;;;;;;;;;5077251;28;20472;-75
2023/04/23 02:41:50;;;;;;;4.00;2.97;;;;;;;;;;5076310;28;20459;-76
2023/04/23 02:44:21;;;;;;;2.87;2.63;;;;;;;;;;5075725;28;20524;-77
2023/04/23 02:46:52;;;;;;;3.73;2.80;;;;;;;;;;5075713;28;20536;-76
2023/04/23 02:49:20;;;;;;;2.53;2.43;;;;;;;;;;5075199;28;21027;-77
2023/04/23 02:51:50;;;;;;;2.70;2.50;;;;;;;;;;5074818;28;20736;-76
2023/04/23 02:54:31;;;;;;;3.43;3.10;;;;;;;;;;5075467;28;20445;-76
2023/04/23 02:57:13;;;;;;;3.60;3.20;;;;;;;;;;5076039;28;20563;-76
2023/04/23 02:59:54;;;;;;;3.37;3.10;;;;;;;;;;5076326;28;20475;-77
2023/04/23 03:02:24;;;;;;;3.30;3.10;;;;;;;;;;5076482;28;20455;-76
2023/04/23 03:04:56;;;;;;;3.23;2.80;;;;;;;;;;5076840;28;20445;-76
2023/04/23 03:10:07;;;;;;;3.37;3.07;;;;;;;;;;5074969;28;20448;-77
2023/04/23 03:12:39;;;;;;;2.50;2.30;;;;;;;;;;5075702;28;20482;-76
2023/04/23 03:15:10;;;;;;;3.60;2.80;;;;;;;;;;5076838;28;20445;-76
2023/04/23 03:17:39;;;;;;;3.10;2.50;;;;;;;;;;5082052;28;20546;-77
2023/04/23 03:20:15;;;;;;;3.50;3.20;;;;;;;;;;5111905;28;20467;-77
2023/04/23 03:22:44;;;;;;;3.10;2.90;;;;;;;;;;5112791;28;20515;-77
2023/04/23 03:25:12;;;;;;;2.90;2.70;;;;;;;;;;5113864;28;20454;-77
2023/04/23 03:27:43;;;;;;;4.67;2.77;;;;;;;;;;5113319;28;20479;-77
2023/04/23 03:30:11;;;;;;;4.30;2.60;;;;;;;;;;5115710;28;20456;-77
2023/04/23 03:32:39;;;;;;;4.33;2.60;;;;;;;;;;5114871;28;20446;-76
2023/04/23 03:35:13;;;;;;;3.07;2.87;;;;;;;;;;5115763;28;20541;-78
2023/04/23 03:37:41;;;;;;;2.87;2.67;;;;;;;;;;5114133;28;20451;-77
2023/04/23 03:40:16;;;;;;;4.53;3.13;;;;;;;;;;5114920;28;20475;-77
2023/04/23 03:42:54;;;;;;;2.50;2.40;;;;;;;;;;5116509;28;20428;-77
2023/04/23 03:45:21;;;;;;;2.70;2.50;;;;;;;;;;5116965;28;20432;-76
2023/04/23 03:47:49;;;;;;;2.93;2.63;;;;;;;;;;5118364;28;20456;-77
2023/04/23 03:50:17;;;;;;;3.10;2.90;;;;;;;;;;5117899;28;20439;-77
2023/04/23 03:52:50;;;;;;;2.93;2.73;;;;;;;;;;5117204;28;20463;-79
2023/04/23 03:55:23;;;;;;;3.53;3.23;;;;;;;;;;5113033;28;20444;-76
2023/04/23 03:57:54;;;;;;;3.60;3.30;;;;;;;;;;5091865;28;20471;-76
2023/04/23 04:00:25;;;;;;;2.80;2.60;;;;;;;;;;5079347;28;20480;-77
2023/04/23 04:02:53;;;;;;;2.70;2.60;;;;;;;;;;5079747;28;20598;-77
2023/04/23 04:05:21;;;;;;;3.17;2.87;;;;;;;;;;5079347;28;20456;-78
2023/04/23 04:07:49;;;;;;;4.47;3.90;;;;;;;;;;5078683;28;20449;-76
2023/04/23 04:10:16;;;;;;;2.83;2.60;;;;;;;;;;5078219;28;20425;-76
2023/04/23 04:12:47;;;;;;;2.87;2.50;;;;;;;;;;5077230;28;20459;-76
2023/04/23 04:15:19;;;;;;;2.67;2.57;;;;;;;;;;5076734;28;20465;-77
2023/04/23 04:17:58;;;;;;;3.33;3.03;;;;;;;;;;5077674;28;20471;-76
2023/04/23 04:20:27;;;;;;;2.40;2.20;;;;;;;;;;5077327;28;20460;-77
2023/04/23 04:22:58;;;;;;;2.40;2.20;;;;;;;;;;5077158;28;20466;-76
2023/04/23 04:25:30;;;;;;;2.80;2.60;;;;;;;;;;5074984;28;20543;-77
2023/04/23 04:28:04;;;;;;;2.63;2.53;;;;;;;;;;5075306;28;20855;-77
2023/04/23 04:30:44;;;;;;;2.23;2.13;;;;;;;;;;5074422;28;20445;-77
2023/04/23 04:33:16;;;;;;;2.50;2.30;;;;;;;;;;5074046;28;20456;-77
2023/04/23 04:36:03;;;;;;;2.43;2.33;;;;;;;;;;5077101;28;20525;-77
2023/04/23 04:38:40;;;;;;;2.30;2.20;;;;;;;;;;5074970;28;20472;-77
2023/04/23 04:41:12;;;;;;;2.80;2.57;;;;;;;;;;5074925;28;20479;-77
2023/04/23 04:43:40;;;;;;;2.80;2.40;;;;;;;;;;5074633;28;20449;-77
2023/04/23 04:46:11;;;;;;;2.30;2.20;;;;;;;;;;5077941;28;20456;-77
2023/04/23 04:48:40;;;;;;;2.70;2.10;;;;;;;;;;5078735;28;20526;-77
2023/04/23 04:54:00;;;;;;;2.37;2.27;;;;;;;;;;5072298;28;20453;-78
2023/04/23 04:56:37;;;;;;;2.30;2.20;;;;;;;;;;5077504;28;20559;-76
2023/04/23 04:59:07;;;;;;;2.53;2.43;;;;;;;;;;5077890;28;20452;-76
2023/04/23 05:01:38;;;;;;;2.20;2.00;;;;;;;;;;5081971;28;20472;-77
2023/04/23 05:04:08;;;;;;;2.83;2.60;;;;;;;;;;5088869;28;20535;-75
2023/04/23 05:06:37;;;;;;;2.70;2.40;;;;;;;;;;5090464;28;20626;-77
2023/04/23 05:09:07;;;;;;;2.47;2.37;;;;;;;;;;5089961;28;20455;-77
2023/04/23 05:11:40;;;;;;;2.37;2.27;;;;;;;;;;5088981;28;20448;-77
2023/04/23 05:14:10;;;;;;;2.90;2.70;;;;;;;;;;5086686;28;20467;-79
2023/04/23 05:16:39;;;;;;;2.70;2.47;;;;;;;;;;5081277;28;20445;-78
2023/04/23 05:19:08;;;;;;;3.50;3.10;;;;;;;;;;5079815;28;20452;-75
2023/04/23 05:21:36;;;;;;;2.70;2.60;;;;;;;;;;5083541;28;20479;-77
2023/04/23 05:24:04;;;;;;;2.40;2.20;;;;;;;;;;5079197;28;20819;-76
2023/04/23 05:26:33;;;;;;;2.40;2.30;;;;;;;;;;5073818;28;20453;-77
2023/04/23 05:29:03;;;;;;;2.80;2.60;;;;;;;;;;5073920;28;20498;-77
2023/04/23 05:31:31;;;;;;;2.90;2.57;;;;;;;;;;5074093;28;20508;-77
2023/04/23 05:34:00;;;;;;;2.23;2.00;;;;;;;;;;5074325;28;20457;-77
2023/04/23 05:36:30;;;;;;;3.03;2.40;;;;;;;;;;5075062;28;20452;-76
2023/04/23 05:38:57;;;;;;;2.20;2.10;;;;;;;;;;5076491;28;20502;-76
2023/04/23 05:41:26;;;;;;;2.40;2.30;;;;;;;;;;5077988;28;20996;-76
2023/04/23 05:43:59;;;;;;;2.23;2.13;;;;;;;;;;5075963;28;20472;-77
2023/04/23 05:46:28;;;;;;;2.40;2.30;;;;;;;;;;5077367;28;20480;-77
2023/04/23 05:49:01;;;;;;;2.30;2.20;;;;;;;;;;5078611;28;21115;-77
2023/04/23 05:51:31;;;;;;;2.47;2.27;;;;;;;;;;5076180;28;20864;-77
2023/04/23 05:54:02;;;;;;;2.70;2.17;;;;;;;;;;5074385;28;20472;-77
2023/04/23 05:56:42;;;;;;;2.43;2.27;;;;;;;;;;5078678;28;20805;-77
2023/04/23 05:59:16;;;;;;;2.00;1.90;;;;;;;;;;5079831;28;20449;-77
2023/04/23 06:01:45;;;;;;;1.70;1.60;;;;;;;;;;5079302;28;20522;-75
2023/04/23 06:04:15;;;;;;;2.00;1.90;;;;;;;;;;5079683;28;20559;-77
2023/04/23 06:06:54;;;;;;;1.73;1.63;;;;;;;;;;5080378;28;20468;-77
2023/04/23 06:09:24;;;;;;;2.20;2.10;;;;;;;;;;5080131;28;20452;-76
2023/04/23 06:11:53;;;;;;;1.63;1.53;;;;;;;;;;5079808;28;20460;-77
2023/04/23 06:14:21;;;;;;;3.20;3.00;;;;;;;;;;5078812;28;20509;-78
2023/04/23 06:16:51;;;;;;;2.30;2.20;;;;;;;;;;5078869;28;20448;-76
2023/04/23 06:19:24;;;;;;;2.20;2.03;;;;;;;;;;5079900;28;20444;-76
2023/04/23 06:21:56;;;;;;;2.77;2.57;;;;;;;;;;5079202;28;20933;-76
2023/04/23 06:24:28;;;;;;;1.67;1.57;;;;;;;;;;5082838;28;20447;-76
2023/04/23 06:27:05;;;;;;;1.93;1.83;;;;;;;;;;5083814;28;20555;-76
2023/04/23 06:29:34;;;;;;;1.47;1.47;;;;;;;;;;5082999;28;20505;-75
2023/04/23 06:32:17;;;;;;;1.70;1.70;;;;;;;;;;5083506;28;20471;-77
2023/04/23 06:34:52;;;;;;;2.00;1.90;;;;;;;;;;5083471;28;20448;-77
2023/04/23 06:37:29;;;;;;;1.93;1.67;;;;;;;;;;5090104;28;20476;-77
2023/04/23 06:40:10;;;;;;;1.90;1.80;;;;;;;;;;5104078;28;20435;-77
2023/04/23 06:42:40;;;;;;;3.30;2.50;;;;;;;;;;5095772;28;20437;-76
2023/04/23 06:45:10;;;;;;;1.40;1.40;;;;;;;;;;5091700;28;20455;-76
2023/04/23 06:47:41;;;;;;;1.67;1.57;;;;;;;;;;5078600;28;20471;-77
2023/04/23 06:50:13;;;;;;;1.30;1.30;;;;;;;;;;5083444;28;20492;-76
2023/04/23 06:52:47;;;;;;;1.70;1.60;;;;;;;;;;5083289;28;20479;-76
2023/04/23 06:55:17;;;;;;;1.30;1.30;;;;;;;;;;5076906;28;20882;-77
2023/04/23 06:57:45;;;;;;;2.23;2.13;;;;;;;;;;5078388;28;20468;-77
2023/04/23 07:00:13;;;;;;;1.40;1.40;;;;;;;;;;5076624;28;20429;-76
2023/04/23 07:02:41;;;;;;;1.40;1.30;;;;;;;;;;5076268;28;20472;-77
2023/04/23 07:05:10;;;;;;;1.43;1.40;;;;;;;;;;5075248;28;20804;-77
2023/04/23 07:07:39;;;;;;;1.27;1.27;;;;;;;;;;5073884;28;20476;-77
2023/04/23 07:10:10;;;;;;;2.27;1.70;;;;;;;;;;5075571;28;20790;-77
2023/04/23 07:12:38;;;;;;;4.27;3.97;;;;;;;;;;5080279;28;20520;-76
2023/04/23 07:15:13;;;;;;;1.50;1.40;;;;;;;;;;5094165;28;20453;-77
2023/04/23 07:17:45;;;;;;;1.67;1.30;;;;;;;;;;5104574;28;20467;-78
2023/04/23 07:20:16;;;;;;;1.20;1.20;;;;;;;;;;5102783;28;20451;-77
2023/04/23 07:22:47;;;;;;;1.30;1.20;;;;;;;;;;5100505;28;20540;-79
2023/04/23 07:25:20;;;;;;;1.10;1.10;;;;;;;;;;5100027;28;20448;-78
2023/04/23 07:27:58;;;;;;;1.40;1.30;;;;;;;;;;5101526;28;20475;-78
2023/04/23 07:30:27;;;;;;;1.80;1.70;;;;;;;;;;5101881;28;20535;-77
2023/04/23 07:32:58;;;;;;;1.77;1.67;;;;;;;;;;5096402;28;20475;-76
2023/04/23 07:35:26;;;;;;;8.53;7.07;;;;;;;;;;5096476;28;20451;-76
2023/04/23 07:37:56;;;;;;;1.83;1.73;;;;;;;;;;5098502;28;20464;-76
2023/04/23 07:40:29;;;;;;;1.73;1.63;;;;;;;;;;5097370;28;20432;-79
2023/04/23 07:42:58;;;;;;;1.27;1.27;;;;;;;;;;5097685;28;20448;-79
2023/04/23 07:45:28;;;;;;;1.30;1.20;;;;;;;;;;5101558;28;20505;-77
2023/04/23 07:48:01;;;;;;;1.20;1.20;;;;;;;;;;5096916;28;20501;-77
2023/04/23 07:50:30;;;;;;;1.03;1.03;;;;;;;;;;5097480;28;20455;-75
2023/04/23 07:53:10;;;;;;;2.20;1.50;;;;;;;;;;5100295;28;20452;-77
2023/04/23 07:55:46;;;;;;;1.10;1.10;;;;;;;;;;5103609;28;20456;-77
2023/04/23 07:58:14;;;;;;;1.27;1.27;;;;;;;;;;5103335;28;20471;-77
2023/04/23 08:00:45;;;;;;;1.27;1.27;;;;;;;;;;5100636;28;20524;-77
2023/04/23 08:03:20;;;;;;;1.93;1.83;;;;;;;;;;5098797;28;20438;-77
2023/04/23 08:05:48;;;;;;;4.17;1.90;;;;;;;;;;5100074;28;20470;-77
2023/04/23 08:08:19;;;;;;;1.70;1.60;;;;;;;;;;5097022;28;20525;-75
2023/04/23 08:10:49;;;;;;;1.43;1.33;;;;;;;;;;5094652;28;20521;-77
2023/04/23 08:13:16;;;;;;;1.33;1.33;;;;;;;;;;5094053;28;20501;-76
2023/04/23 08:15:44;;;;;;;1.90;1.80;;;;;;;;;;5093714;28;20451;-77
2023/04/23 08:18:12;;;;;;;2.23;1.90;;;;;;;;;;5087924;28;20457;-76
2023/04/23 08:20:48;;;;;;;1.50;1.50;;;;;;;;;;5073804;28;20445;-77
2023/04/23 08:23:16;;;;;;;1.20;1.20;;;;;;;;;;5075185;28;20456;-77
2023/04/23 08:25:43;;;;;;;2.30;1.57;;;;;;;;;;5074499;28;20528;-77
2023/04/23 08:28:13;;;;;;;1.60;1.50;;;;;;;;;;5074180;28;20484;-77
2023/04/23 08:30:43;;;;;;;1.73;1.63;;;;;;;;;;5074587;28;20463;-76
2023/04/23 08:33:12;;;;;;;1.97;1.87;;;;;;;;;;5079170;28;20464;-77
2023/04/23 08:36:16;;;;;;;1.70;1.60;;;;;;;;;;5087121;28;20475;-76
2023/04/23 08:38:47;;;;;;;1.87;1.77;;;;;;;;;;5084369;28;20464;-76
2023/04/23 08:41:15;;;;;;;1.57;1.50;;;;;;;;;;5089206;28;20476;-76
2023/04/23 08:43:47;;;;;;;1.60;1.50;;;;;;;;;;5089359;28;20615;-78
2023/04/23 08:46:15;;;;;;;2.23;2.13;;;;;;;;;;5089225;28;20444;-78
2023/04/23 08:48:44;;;;;;;3.30;3.00;;;;;;;;;;5093342;28;20460;-78
2023/04/23 08:51:14;;;;;;;1.90;1.50;;;;;;;;;;5106116;28;20440;-79
2023/04/23 08:53:49;;;;;;;4.60;1.80;;;;;;;;;;5106960;28;20447;-78
2023/04/23 08:56:22;;;;;;;1.40;1.40;;;;;;;;;;5105348;28;20447;-77
2023/04/23 08:58:54;;;;;;;1.80;1.70;;;;;;;;;;5098665;28;20460;-77
2023/04/23 09:01:23;;;;;;;1.40;1.40;;;;;;;;;;5098817;28;20468;-76
2023/04/23 09:04:01;;;;;;;2.00;1.60;;;;;;;;;;5099034;28;20456;-77
2023/04/23 09:06:30;;;;;;;1.70;1.60;;;;;;;;;;5099874;28;20436;-76
2023/04/23 09:08:59;;;;;;;2.13;1.90;;;;;;;;;;5099690;28;20474;-78
2023/04/23 09:11:44;;;;;;;1.20;1.20;;;;;;;;;;5097038;28;20451;-78
2023/04/23 09:14:27;;;;;;;1.70;1.60;;;;;;;;;;5099755;28;20451;-77
2023/04/23 09:16:55;;;;;;;1.93;1.83;;;;;;;;;;5100397;28;20463;-78
2023/04/23 09:19:27;;;;;;;2.00;1.90;;;;;;;;;;5100496;28;20443;-78
2023/04/23 09:21:54;;;;;;;1.93;1.83;;;;;;;;;;5099799;28;20478;-76
2023/04/23 09:24:31;;;;;;;2.67;1.70;;;;;;;;;;5100456;28;20452;-76
2023/04/23 09:27:02;;;;;;;1.47;1.47;;;;;;;;;;5098936;28;20471;-76
2023/04/23 09:29:35;;;;;;;1.70;1.60;;;;;;;;;;5097594;28;20467;-77
2023/04/23 09:32:10;;;;;;;1.30;1.30;;;;;;;;;;5102640;28;20454;-77
2023/04/23 09:35:00;;;;;;;1.67;1.57;;;;;;;;;;5102429;28;20451;-78
2023/04/23 09:37:27;;;;;;;2.00;1.83;;;;;;;;;;5105866;28;20447;-78
2023/04/23 09:39:56;;;;;;;2.00;1.90;;;;;;;;;;5105067;28;20425;-78
2023/04/23 09:42:29;;;;;;;2.20;2.00;;;;;;;;;;5107864;28;20968;-76
2023/04/23 09:45:05;;;;;;;2.03;1.87;;;;;;;;;;5108532;28;20439;-77
2023/04/23 09:47:33;;;;;;;1.20;1.20;;;;;;;;;;5108327;28;20562;-78
2023/04/23 09:50:13;;;;;;;1.50;1.40;;;;;;;;;;5109499;28;20436;-76
2023/04/23 09:52:42;;;;;;;2.40;1.30;;;;;;;;;;5108230;28;20475;-77
2023/04/23 09:55:12;;;;;;;1.67;1.33;;;;;;;;;;5108925;28;20908;-76
2023/04/23 09:57:43;;;;;;;1.70;1.60;;;;;;;;;;5106824;28;20475;-77
2023/04/23 10:00:24;;;;;;;1.20;1.17;;;;;;;;;;5105122;28;20433;-77
2023/04/23 10:02:55;;;;;;;1.10;1.10;;;;;;;;;;5102485;28;20476;-77
2023/04/23 10:05:32;;;;;;;1.83;1.13;;;;;;;;;;5101538;28;20507;-79
2023/04/23 10:08:05;;;;;;;2.50;1.57;;;;;;;;;;5102383;28;20467;-77
2023/04/23 10:10:35;;;;;;;2.27;1.10;;;;;;;;;;5103220;28;20452;-77
2023/04/23 10:13:02;;;;;;;1.37;1.27;;;;;;;;;;5101847;28;20580;-77
2023/04/23 10:15:34;;;;;;;1.23;1.20;;;;;;;;;;5102066;28;20452;-78
2023/04/23 10:18:06;;;;;;;2.53;1.20;;;;;;;;;;5090951;28;20472;-77
2023/04/23 10:20:39;;;;;;;3.20;1.17;;;;;;;;;;5073611;28;20445;-77
2023/04/23 10:23:08;;;;;;;1.23;1.10;;;;;;;;;;5073159;28;20476;-77
2023/04/23 10:25:37;;;;;;;0.97;0.97;;;;;;;;;;5073767;28;20452;-79
2023/04/23 10:28:06;;;;;;;1.60;1.10;;;;;;;;;;5073607;28;20489;-77
2023/04/23 10:30:38;;;;;;;1.33;1.23;;;;;;;;;;5073805;28;20452;-77
2023/04/23 10:33:05;;;;;;;1.10;1.10;;;;;;;;;;5073085;28;20471;-76
2023/04/23 10:35:35;;;;;;;1.60;1.10;;;;;;;;;;5073360;28;20463;-76
2023/04/23 10:38:04;;;;;;;1.00;1.00;;;;;;;;;;5075214;28;20453;-77
2023/04/23 10:40:33;;;;;;;1.37;0.90;;;;;;;;;;5079986;28;20536;-79
2023/04/23 10:43:02;;;;;;;1.07;1.07;;;;;;;;;;5077307;28;20528;-77
2023/04/23 10:45:33;;;;;;;1.00;1.00;;;;;;;;;;5077990;28;20455;-77
2023/04/23 10:48:04;;;;;;;1.10;1.10;;;;;;;;;;5078111;28;20468;-80
2023/04/23 10:50:36;;;;;;;2.90;1.20;;;;;;;;;;5079028;28;20445;-77
2023/04/23 10:53:19;;;;;;;0.93;0.93;;;;;;;;;;5078896;28;20448;-76
2023/04/23 10:55:50;;;;;;;1.60;1.40;;;;;;;;;;5080962;28;20861;-77
2023/04/23 10:58:23;;;;;;;1.20;1.10;;;;;;;;;;5077693;28;20924;-77
2023/04/23 11:00:52;;;;;;;0.90;0.90;;;;;;;;;;5082539;28;20444;-76
2023/04/23 11:03:41;;;;;;;0.93;0.93;;;;;;;;;;5078257;28;20477;-76
2023/04/23 11:06:09;;;;;;;1.10;1.10;;;;;;;;;;5076350;28;20831;-76
2023/04/23 11:08:51;;;;;;;3.27;1.00;;;;;;;;;;5077628;28;20473;-76
2023/04/23 11:11:21;;;;;;;0.90;0.90;;;;;;;;;;5078325;28;20556;-79
2023/04/23 11:13:53;;;;;;;1.80;1.70;;;;;;;;;;5076157;28;20445;-78
2023/04/23 11:16:25;;;;;;;4.03;3.77;;;;;;;;;;5076461;28;20441;-78
2023/04/23 11:19:03;;;;;;;1.43;0.97;;;;;;;;;;5089569;28;20468;-76
2023/04/23 11:21:50;;;;;;;1.20;1.20;;;;;;;;;;5098388;28;20458;-76
2023/04/23 11:24:17;;;;;;;1.10;1.10;;;;;;;;;;5097654;28;21296;-75
2023/04/23 11:26:45;;;;;;;0.83;0.83;;;;;;;;;;5097623;28;20508;-76
2023/04/23 11:29:19;;;;;;;1.33;1.00;;;;;;;;;;5098498;28;20551;-77
2023/04/23 11:31:49;;;;;;;1.17;1.00;;;;;;;;;;5099838;28;20570;-76
2023/04/23 11:34:19;;;;;;;0.87;0.87;;;;;;;;;;5100756;28;20538;-76
2023/04/23 11:36:48;;;;;;;1.17;1.17;;;;;;;;;;5101492;28;20526;-75
2023/04/23 11:39:17;;;;;;;1.17;1.00;;;;;;;;;;5103059;28;20455;-75
2023/04/23 11:41:49;;;;;;;3.20;1.00;;;;;;;;;;5101132;28;20436;-77
2023/04/23 11:44:16;;;;;;;1.13;1.13;;;;;;;;;;5099243;28;20540;-78
2023/04/23 11:46:43;;;;;;;1.27;0.97;;;;;;;;;;5099694;28;20505;-76
2023/04/23 11:49:14;;;;;;;1.37;1.07;;;;;;;;;;5101699;28;20428;-77
2023/04/23 11:51:44;;;;;;;0.77;0.77;;;;;;;;;;5099055;28;20455;-76
2023/04/23 11:54:12;;;;;;;1.23;0.83;;;;;;;;;;5100115;28;20417;-75
2023/04/23 11:56:41;;;;;;;0.90;0.87;;;;;;;;;;5098954;28;20447;-78
2023/04/23 11:59:09;;;;;;;1.50;1.40;;;;;;;;;;5099328;28;20466;-78
2023/04/23 12:01:47;;;;;;;1.17;0.80;;;;;;;;;;5099583;28;20497;-76
2023/04/23 12:04:16;;;;;;;0.90;0.90;;;;;;;;;;5098102;28;20451;-75
2023/04/23 12:06:47;;;;;;;1.10;1.10;;;;;;;;;;5097948;28;20546;-76
2023/04/23 12:09:15;;;;;;;0.80;0.80;;;;;;;;;;5099444;28;20455;-76
2023/04/23 12:11:43;;;;;;;1.40;1.30;;;;;;;;;;5100699;28;20456;-77
2023/04/23 12:14:28;;;;;;;0.80;0.80;;;;;;;;;;5099232;28;20458;-80
2023/04/23 12:16:57;;;;;;;1.03;1.03;;;;;;;;;;5097003;28;20472;-75
2023/04/23 12:19:29;;;;;;;1.17;0.87;;;;;;;;;;5079628;28;20449;-77
2023/04/23 12:21:59;;;;;;;1.40;1.30;;;;;;;;;;5075248;28;20448;-76
2023/04/23 12:24:31;;;;;;;0.83;0.83;;;;;;;;;;5076229;28;20449;-77
2023/04/23 12:27:01;;;;;;;0.93;0.93;;;;;;;;;;5077955;28;20456;-77
2023/04/23 12:29:30;;;;;;;1.07;1.03;;;;;;;;;;5076332;28;20487;-76
2023/04/23 12:31:59;;;;;;;0.87;0.87;;;;;;;;;;5078476;28;20458;-77
2023/04/23 12:34:27;;;;;;;1.13;1.10;;;;;;;;;;5077955;28;20443;-76
2023/04/23 12:36:56;;;;;;;1.90;1.27;;;;;;;;;;5077461;28;20503;-77
2023/04/23 12:39:26;;;;;;;1.47;1.37;;;;;;;;;;5078179;28;20452;-78
2023/04/23 12:41:55;;;;;;;1.00;1.00;;;;;;;;;;5077531;28;20460;-77
2023/04/23 12:44:23;;;;;;;1.10;0.97;;;;;;;;;;5075570;28;20556;-78
2023/04/23 12:46:51;;;;;;;1.20;1.10;;;;;;;;;;5077636;28;20473;-78
2023/04/23 12:49:22;;;;;;;1.00;1.00;;;;;;;;;;5076810;28;20463;-77
2023/04/23 12:51:51;;;;;;;1.33;1.20;;;;;;;;;;5077838;28;20469;-78
2023/04/23 12:54:21;;;;;;;0.90;0.90;;;;;;;;;;5088738;28;20501;-78
2023/04/23 12:56:50;;;;;;;1.10;1.10;;;;;;;;;;5083850;28;20475;-78
2023/04/23 12:59:18;;;;;;;1.13;1.03;;;;;;;;;;5086927;28;20441;-77
2023/04/23 13:01:45;;;;;;;1.13;1.03;;;;;;;;;;5083826;28;20440;-77
2023/04/23 13:04:13;;;;;;;1.70;1.10;;;;;;;;;;5083309;28;20486;-77
2023/04/23 13:06:40;;;;;;;1.00;1.00;;;;;;;;;;5081777;28;20432;-75
2023/04/23 13:09:10;;;;;;;1.10;1.10;;;;;;;;;;5082275;28;20472;-76
2023/04/23 13:11:40;;;;;;;0.80;0.80;;;;;;;;;;5079354;28;20440;-77
2023/04/23 13:14:12;;;;;;;1.10;1.10;;;;;;;;;;5083496;28;20441;-77
2023/04/23 13:16:42;;;;;;;1.43;1.20;;;;;;;;;;5081146;28;20445;-75
2023/04/23 13:19:11;;;;;;;1.33;1.27;;;;;;;;;;5077950;28;20457;-75
2023/04/23 13:21:40;;;;;;;1.63;1.53;;;;;;;;;;5079272;28;20444;-77
2023/04/23 13:24:10;;;;;;;1.27;0.90;;;;;;;;;;5077937;28;20548;-77
2023/04/23 13:26:43;;;;;;;1.10;1.10;;;;;;;;;;5079402;28;20960;-76
2023/04/23 13:29:12;;;;;;;0.73;0.73;;;;;;;;;;5080188;28;20473;-76
2023/04/23 13:31:41;;;;;;;0.80;0.80;;;;;;;;;;5085240;28;20448;-78
2023/04/23 13:34:08;;;;;;;0.93;0.80;;;;;;;;;;5080278;28;20463;-77
2023/04/23 13:36:39;;;;;;;0.80;0.80;;;;;;;;;;5076981;28;20448;-76
2023/04/23 13:39:13;;;;;;;1.13;1.00;;;;;;;;;;5074017;28;20453;-76
2023/04/23 13:42:12;;;;;;;1.03;0.80;;;;;;;;;;5072723;28;20463;-76
2023/04/23 13:44:57;;;;;;;1.20;1.10;;;;;;;;;;5070954;28;20451;-77
2023/04/23 13:47:32;;;;;;;1.57;1.00;;;;;;;;;;5071791;28;20464;-76
2023/04/23 13:50:01;;;;;;;1.43;0.80;;;;;;;;;;5073173;28;20436;-77
2023/04/23 13:52:30;;;;;;;0.90;0.83;;;;;;;;;;5086014;28;20448;-76
2023/04/23 13:55:01;;;;;;;1.60;0.67;;;;;;;;;;5093391;28;20818;-76
2023/04/23 13:57:29;;;;;;;1.33;1.03;;;;;;;;;;5092363;28;20479;-77
2023/04/23 13:59:58;;;;;;;0.73;0.73;;;;;;;;;;5092042;28;20538;-76
2023/04/23 14:02:28;;;;;;;0.97;0.90;;;;;;;;;;5090637;28;20452;-75
2023/04/23 14:04:57;;;;;;;2.70;0.80;;;;;;;;;;5090699;28;20504;-76
2023/04/23 14:07:25;;;;;;;0.97;0.97;;;;;;;;;;5090815;28;20475;-77
2023/04/23 14:09:54;;;;;;;1.33;0.97;;;;;;;;;;5091092;28;20452;-77
2023/04/23 14:12:22;;;;;;;1.37;0.90;;;;;;;;;;5090933;28;20444;-77
2023/04/23 14:14:51;;;;;;;0.97;0.90;;;;;;;;;;5090660;28;20536;-77
2023/04/23 14:17:20;;;;;;;1.20;1.10;;;;;;;;;;5094367;28;20598;-77
2023/04/23 14:19:49;;;;;;;1.60;0.93;;;;;;;;;;5074836;28;20476;-78
2023/04/23 14:22:17;;;;;;;0.93;0.90;;;;;;;;;;5074799;28;20457;-78
2023/04/23 14:24:51;;;;;;;2.23;1.17;;;;;;;;;;5074316;28;20472;-77
2023/04/23 14:27:27;;;;;;;1.07;0.80;;;;;;;;;;5074979;28;20505;-76
2023/04/23 14:30:01;;;;;;;0.87;0.87;;;;;;;;;;5074704;28;20509;-77
2023/04/23 14:32:31;;;;;;;1.33;0.80;;;;;;;;;;5074886;28;20459;-77
2023/04/23 14:35:02;;;;;;;0.93;0.90;;;;;;;;;;5074100;28;20482;-79
2023/04/23 14:37:30;;;;;;;1.90;0.90;;;;;;;;;;5074031;28;20655;-76
2023/04/23 14:39:57;;;;;;;1.00;0.90;;;;;;;;;;5074773;28;20501;-77
2023/04/23 14:42:30;;;;;;;1.30;1.13;;;;;;;;;;5074050;28;20458;-76
2023/04/23 14:44:59;;;;;;;1.17;1.10;;;;;;;;;;5074419;28;20448;-75
2023/04/23 14:47:26;;;;;;;1.30;1.20;;;;;;;;;;5074184;28;20817;-76
2023/04/23 14:49:59;;;;;;;4.43;1.30;;;;;;;;;;5073600;28;20433;-76
2023/04/23 14:52:30;;;;;;;1.53;0.80;;;;;;;;;;5073795;28;20536;-76
2023/04/23 14:54:58;;;;;;;1.40;0.97;;;;;;;;;;5073562;28;20436;-76
2023/04/23 14:57:26;;;;;;;2.30;1.00;;;;;;;;;;5073724;28;20484;-75
2023/04/23 14:59:53;;;;;;;1.80;1.07;;;;;;;;;;5073731;28;20456;-75
2023/04/23 15:02:21;;;;;;;0.77;0.77;;;;;;;;;;5074151;28;20533;-76
2023/04/23 15:04:48;;;;;;;1.17;1.07;;;;;;;;;;5073443;28;20480;-77
2023/04/23 15:07:17;;;;;;;1.00;0.90;;;;;;;;;;5073231;28;20507;-77
2023/04/23 15:09:46;;;;;;;0.80;0.80;;;;;;;;;;5073723;28;20429;-77
2023/04/23 15:12:37;;;;;;;1.27;1.17;;;;;;;;;;5073616;28;20478;-77
2023/04/23 15:15:07;;;;;;;1.43;1.20;;;;;;;;;;5074755;28;20445;-78
2023/04/23 15:17:35;;;;;;;2.17;1.20;;;;;;;;;;5074420;28;20838;-77